sensor_id;sensor_type;location;lat;lon;timestamp;P1;durP1;ratioP1;P2;durP2;ratioP2
71963;SDS011;59834;52.124;5.422;2023-10-19T00:03:00;4.70;;;4.20;;
71963;SDS011;59834;52.124;5.422;2023-10-19T00:05:29;5.95;;;4.82;;
71963;SDS011;59834;52.124;5.422;2023-10-19T00:07:58;6.07;;;4.27;;
71963;SDS011;59834;52.124;5.422;2023-10-19T00:13:52;5.45;;;4.28;;
71963;SDS011;59834;52.124;5.422;2023-10-19T00:16:21;5.85;;;5.25;;
71963;SDS011;59834;52.124;5.422;2023-10-19T00:18:55;6.40;;;5.20;;
71963;SDS011;59834;52.124;5.422;2023-10-19T00:21:26;6.27;;;4.53;;
71963;SDS011;59834;52.124;5.422;2023-10-19T00:23:57;7.30;;;4.93;;
71963;SDS011;59834;52.124;5.422;2023-10-19T00:26:25;6.85;;;5.00;;
71963;SDS011;59834;52.124;5.422;2023-10-19T00:28:52;5.40;;;4.60;;
71963;SDS011;59834;52.124;5.422;2023-10-19T00:31:27;10.85;;;5.43;;
71963;SDS011;59834;52.124;5.422;2023-10-19T00:33:55;8.37;;;5.37;;
71963;SDS011;59834;52.124;5.422;2023-10-19T00:36:22;7.90;;;5.80;;
71963;SDS011;59834;52.124;5.422;2023-10-19T00:38:49;7.88;;;5.50;;
71963;SDS011;59834;52.124;5.422;2023-10-19T00:41:17;8.20;;;6.22;;
71963;SDS011;59834;52.124;5.422;2023-10-19T00:43:58;7.22;;;5.97;;
71963;SDS011;59834;52.124;5.422;2023-10-19T00:46:31;7.43;;;5.83;;
71963;SDS011;59834;52.124;5.422;2023-10-19T00:49:10;7.75;;;5.95;;
71963;SDS011;59834;52.124;5.422;2023-10-19T00:51:45;7.53;;;5.65;;
71963;SDS011;59834;52.124;5.422;2023-10-19T00:54:21;9.50;;;6.57;;
71963;SDS011;59834;52.124;5.422;2023-10-19T00:57:00;7.63;;;5.15;;
71963;SDS011;59834;52.124;5.422;2023-10-19T00:59:33;6.97;;;5.60;;
71963;SDS011;59834;52.124;5.422;2023-10-19T01:02:13;7.22;;;6.00;;
71963;SDS011;59834;52.124;5.422;2023-10-19T01:04:45;9.57;;;6.55;;
71963;SDS011;59834;52.124;5.422;2023-10-19T01:07:17;7.18;;;5.65;;
71963;SDS011;59834;52.124;5.422;2023-10-19T01:09:53;6.75;;;5.88;;
71963;SDS011;59834;52.124;5.422;2023-10-19T01:12:23;11.10;;;7.10;;
71963;SDS011;59834;52.124;5.422;2023-10-19T01:17:50;7.95;;;6.47;;
71963;SDS011;59834;52.124;5.422;2023-10-19T01:20:27;7.18;;;6.20;;
71963;SDS011;59834;52.124;5.422;2023-10-19T01:22:55;7.45;;;6.15;;
71963;SDS011;59834;52.124;5.422;2023-10-19T01:28:13;7.78;;;6.22;;
71963;SDS011;59834;52.124;5.422;2023-10-19T01:30:44;8.73;;;7.10;;
71963;SDS011;59834;52.124;5.422;2023-10-19T01:33:11;10.48;;;7.53;;
71963;SDS011;59834;52.124;5.422;2023-10-19T01:35:42;9.07;;;6.75;;
71963;SDS011;59834;52.124;5.422;2023-10-19T01:38:27;8.03;;;6.33;;
71963;SDS011;59834;52.124;5.422;2023-10-19T01:41:04;7.40;;;6.18;;
71963;SDS011;59834;52.124;5.422;2023-10-19T01:43:43;7.65;;;6.85;;
71963;SDS011;59834;52.124;5.422;2023-10-19T01:46:11;10.90;;;7.22;;
71963;SDS011;59834;52.124;5.422;2023-10-19T01:48:40;8.32;;;6.95;;
71963;SDS011;59834;52.124;5.422;2023-10-19T01:51:08;12.17;;;7.40;;
71963;SDS011;59834;52.124;5.422;2023-10-19T01:53:41;10.18;;;6.78;;
71963;SDS011;59834;52.124;5.422;2023-10-19T01:56:12;8.25;;;7.30;;
71963;SDS011;59834;52.124;5.422;2023-10-19T01:58:39;12.68;;;7.43;;
71963;SDS011;59834;52.124;5.422;2023-10-19T02:01:07;9.00;;;6.85;;
71963;SDS011;59834;52.124;5.422;2023-10-19T02:03:57;10.50;;;7.77;;
71963;SDS011;59834;52.124;5.422;2023-10-19T02:06:27;11.15;;;7.68;;
71963;SDS011;59834;52.124;5.422;2023-10-19T02:09:05;9.75;;;7.22;;
71963;SDS011;59834;52.124;5.422;2023-10-19T02:11:41;9.75;;;7.20;;
71963;SDS011;59834;52.124;5.422;2023-10-19T02:14:08;11.93;;;6.55;;
71963;SDS011;59834;52.124;5.422;2023-10-19T02:16:41;9.90;;;7.07;;
71963;SDS011;59834;52.124;5.422;2023-10-19T02:19:13;10.77;;;6.97;;
71963;SDS011;59834;52.124;5.422;2023-10-19T02:21:40;9.77;;;7.25;;
71963;SDS011;59834;52.124;5.422;2023-10-19T02:24:07;9.52;;;6.75;;
71963;SDS011;59834;52.124;5.422;2023-10-19T02:26:35;8.75;;;6.63;;
71963;SDS011;59834;52.124;5.422;2023-10-19T02:29:04;8.13;;;6.30;;
71963;SDS011;59834;52.124;5.422;2023-10-19T02:31:34;9.68;;;6.65;;
71963;SDS011;59834;52.124;5.422;2023-10-19T02:37:45;7.47;;;6.15;;
71963;SDS011;59834;52.124;5.422;2023-10-19T02:40:12;7.28;;;5.93;;
71963;SDS011;59834;52.124;5.422;2023-10-19T02:42:50;9.20;;;6.07;;
71963;SDS011;59834;52.124;5.422;2023-10-19T02:52:23;7.78;;;5.45;;
71963;SDS011;59834;52.124;5.422;2023-10-19T02:54:50;7.13;;;5.40;;
71963;SDS011;59834;52.124;5.422;2023-10-19T02:57:16;7.70;;;5.40;;
71963;SDS011;59834;52.124;5.422;2023-10-19T02:59:43;7.38;;;5.32;;
71963;SDS011;59834;52.124;5.422;2023-10-19T03:02:13;7.22;;;5.47;;
71963;SDS011;59834;52.124;5.422;2023-10-19T03:07:46;8.75;;;6.38;;
71963;SDS011;59834;52.124;5.422;2023-10-19T03:10:15;8.73;;;5.50;;
71963;SDS011;59834;52.124;5.422;2023-10-19T03:13:00;5.82;;;4.57;;
71963;SDS011;59834;52.124;5.422;2023-10-19T03:22:32;6.45;;;5.22;;
71963;SDS011;59834;52.124;5.422;2023-10-19T03:25:00;7.67;;;6.00;;
71963;SDS011;59834;52.124;5.422;2023-10-19T03:27:46;7.80;;;4.80;;
71963;SDS011;59834;52.124;5.422;2023-10-19T03:30:13;6.32;;;5.10;;
71963;SDS011;59834;52.124;5.422;2023-10-19T03:32:42;9.02;;;5.68;;
71963;SDS011;59834;52.124;5.422;2023-10-19T03:35:08;6.45;;;5.47;;
71963;SDS011;59834;52.124;5.422;2023-10-19T03:37:39;9.17;;;5.23;;
71963;SDS011;59834;52.124;5.422;2023-10-19T03:40:07;8.68;;;4.72;;
71963;SDS011;59834;52.124;5.422;2023-10-19T03:42:36;7.00;;;5.25;;
71963;SDS011;59834;52.124;5.422;2023-10-19T03:45:11;8.93;;;4.38;;
71963;SDS011;59834;52.124;5.422;2023-10-19T03:47:40;6.95;;;4.53;;
71963;SDS011;59834;52.124;5.422;2023-10-19T03:50:09;9.33;;;4.37;;
71963;SDS011;59834;52.124;5.422;2023-10-19T03:52:41;7.65;;;3.95;;
71963;SDS011;59834;52.124;5.422;2023-10-19T03:55:08;6.53;;;4.40;;
71963;SDS011;59834;52.124;5.422;2023-10-19T03:57:39;4.72;;;4.00;;
71963;SDS011;59834;52.124;5.422;2023-10-19T04:00:13;5.40;;;4.13;;
71963;SDS011;59834;52.124;5.422;2023-10-19T04:02:44;8.23;;;3.97;;
71963;SDS011;59834;52.124;5.422;2023-10-19T04:05:13;6.68;;;3.72;;
71963;SDS011;59834;52.124;5.422;2023-10-19T04:07:47;7.88;;;3.90;;
71963;SDS011;59834;52.124;5.422;2023-10-19T04:10:16;7.03;;;3.60;;
71963;SDS011;59834;52.124;5.422;2023-10-19T04:13:01;4.70;;;3.20;;
71963;SDS011;59834;52.124;5.422;2023-10-19T04:15:29;5.77;;;3.00;;
71963;SDS011;59834;52.124;5.422;2023-10-19T04:18:00;4.75;;;2.92;;
71963;SDS011;59834;52.124;5.422;2023-10-19T04:27:35;3.33;;;1.98;;
71963;SDS011;59834;52.124;5.422;2023-10-19T04:30:02;9.20;;;2.00;;
71963;SDS011;59834;52.124;5.422;2023-10-19T04:32:29;3.53;;;1.77;;
71963;SDS011;59834;52.124;5.422;2023-10-19T04:34:58;6.82;;;1.80;;
71963;SDS011;59834;52.124;5.422;2023-10-19T04:37:25;6.00;;;1.58;;
71963;SDS011;59834;52.124;5.422;2023-10-19T04:39:52;4.25;;;1.05;;
71963;SDS011;59834;52.124;5.422;2023-10-19T04:42:18;2.37;;;1.40;;
71963;SDS011;59834;52.124;5.422;2023-10-19T04:44:48;8.95;;;1.40;;
71963;SDS011;59834;52.124;5.422;2023-10-19T04:47:15;4.10;;;1.20;;
71963;SDS011;59834;52.124;5.422;2023-10-19T04:49:41;4.20;;;1.20;;
71963;SDS011;59834;52.124;5.422;2023-10-19T04:52:08;8.30;;;1.50;;
71963;SDS011;59834;52.124;5.422;2023-10-19T04:54:35;3.23;;;1.00;;
71963;SDS011;59834;52.124;5.422;2023-10-19T04:57:02;2.85;;;0.70;;
71963;SDS011;59834;52.124;5.422;2023-10-19T04:59:28;4.07;;;0.85;;
71963;SDS011;59834;52.124;5.422;2023-10-19T05:01:59;3.08;;;0.40;;
71963;SDS011;59834;52.124;5.422;2023-10-19T05:04:28;5.70;;;0.70;;
71963;SDS011;59834;52.124;5.422;2023-10-19T05:06:56;4.40;;;0.50;;
71963;SDS011;59834;52.124;5.422;2023-10-19T05:09:22;2.72;;;0.40;;
71963;SDS011;59834;52.124;5.422;2023-10-19T05:11:49;4.57;;;0.50;;
71963;SDS011;59834;52.124;5.422;2023-10-19T05:14:18;6.22;;;0.40;;
71963;SDS011;59834;52.124;5.422;2023-10-19T05:16:46;1.75;;;0.55;;
71963;SDS011;59834;52.124;5.422;2023-10-19T05:19:14;7.17;;;0.80;;
71963;SDS011;59834;52.124;5.422;2023-10-19T05:21:42;3.42;;;0.38;;
71963;SDS011;59834;52.124;5.422;2023-10-19T05:24:09;1.60;;;0.30;;
71963;SDS011;59834;52.124;5.422;2023-10-19T05:26:36;2.78;;;0.30;;
71963;SDS011;59834;52.124;5.422;2023-10-19T05:29:02;3.30;;;0.30;;
71963;SDS011;59834;52.124;5.422;2023-10-19T05:31:29;2.77;;;0.20;;
71963;SDS011;59834;52.124;5.422;2023-10-19T05:33:57;4.72;;;0.40;;
71963;SDS011;59834;52.124;5.422;2023-10-19T05:36:24;4.50;;;0.40;;
71963;SDS011;59834;52.124;5.422;2023-10-19T05:38:51;1.58;;;0.30;;
71963;SDS011;59834;52.124;5.422;2023-10-19T05:41:18;1.85;;;0.30;;
71963;SDS011;59834;52.124;5.422;2023-10-19T05:43:47;5.00;;;0.40;;
71963;SDS011;59834;52.124;5.422;2023-10-19T05:46:14;6.20;;;0.20;;
71963;SDS011;59834;52.124;5.422;2023-10-19T05:48:44;6.60;;;0.40;;
71963;SDS011;59834;52.124;5.422;2023-10-19T05:51:11;6.55;;;0.65;;
71963;SDS011;59834;52.124;5.422;2023-10-19T05:53:40;2.90;;;0.30;;
71963;SDS011;59834;52.124;5.422;2023-10-19T06:03:16;3.60;;;0.30;;
71963;SDS011;59834;52.124;5.422;2023-10-19T06:05:42;1.80;;;0.30;;
71963;SDS011;59834;52.124;5.422;2023-10-19T06:08:09;4.68;;;0.30;;
71963;SDS011;59834;52.124;5.422;2023-10-19T06:10:36;3.70;;;0.40;;
71963;SDS011;59834;52.124;5.422;2023-10-19T06:13:05;1.35;;;0.28;;
71963;SDS011;59834;52.124;5.422;2023-10-19T06:15:36;2.50;;;0.20;;
71963;SDS011;59834;52.124;5.422;2023-10-19T06:18:02;11.13;;;0.25;;
71963;SDS011;59834;52.124;5.422;2023-10-19T06:20:30;2.55;;;0.20;;
71963;SDS011;59834;52.124;5.422;2023-10-19T06:26:13;2.03;;;0.20;;
71963;SDS011;59834;52.124;5.422;2023-10-19T06:28:41;4.43;;;0.30;;
71963;SDS011;59834;52.124;5.422;2023-10-19T06:31:08;3.22;;;0.32;;
71963;SDS011;59834;52.124;5.422;2023-10-19T06:33:35;5.57;;;0.45;;
71963;SDS011;59834;52.124;5.422;2023-10-19T06:36:08;5.97;;;0.37;;
71963;SDS011;59834;52.124;5.422;2023-10-19T06:38:35;5.90;;;1.27;;
71963;SDS011;59834;52.124;5.422;2023-10-19T06:41:09;2.75;;;0.30;;
71963;SDS011;59834;52.124;5.422;2023-10-19T06:43:40;5.55;;;0.50;;
71963;SDS011;59834;52.124;5.422;2023-10-19T06:46:07;7.20;;;0.60;;
71963;SDS011;59834;52.124;5.422;2023-10-19T06:48:38;2.70;;;0.47;;
71963;SDS011;59834;52.124;5.422;2023-10-19T06:51:05;5.28;;;0.40;;
71963;SDS011;59834;52.124;5.422;2023-10-19T06:53:32;2.42;;;0.55;;
71963;SDS011;59834;52.124;5.422;2023-10-19T06:55:59;5.20;;;1.65;;
71963;SDS011;59834;52.124;5.422;2023-10-19T06:58:27;2.53;;;0.75;;
71963;SDS011;59834;52.124;5.422;2023-10-19T07:00:53;2.37;;;0.63;;
71963;SDS011;59834;52.124;5.422;2023-10-19T07:03:23;3.25;;;0.55;;
71963;SDS011;59834;52.124;5.422;2023-10-19T07:09:08;3.88;;;0.57;;
71963;SDS011;59834;52.124;5.422;2023-10-19T07:11:36;5.20;;;0.60;;
71963;SDS011;59834;52.124;5.422;2023-10-19T07:14:03;2.93;;;0.50;;
71963;SDS011;59834;52.124;5.422;2023-10-19T07:16:33;1.85;;;0.40;;
71963;SDS011;59834;52.124;5.422;2023-10-19T07:19:04;2.38;;;0.60;;
71963;SDS011;59834;52.124;5.422;2023-10-19T07:21:31;6.75;;;0.60;;
71963;SDS011;59834;52.124;5.422;2023-10-19T07:24:01;7.40;;;1.10;;
71963;SDS011;59834;52.124;5.422;2023-10-19T07:26:31;1.73;;;0.40;;
71963;SDS011;59834;52.124;5.422;2023-10-19T07:29:00;7.55;;;0.68;;
71963;SDS011;59834;52.124;5.422;2023-10-19T07:31:26;4.53;;;1.27;;
71963;SDS011;59834;52.124;5.422;2023-10-19T07:36:51;1.80;;;0.63;;
71963;SDS011;59834;52.124;5.422;2023-10-19T07:39:20;4.63;;;0.70;;
71963;SDS011;59834;52.124;5.422;2023-10-19T07:41:49;10.57;;;1.70;;
71963;SDS011;59834;52.124;5.422;2023-10-19T07:44:16;2.97;;;0.63;;
71963;SDS011;59834;52.124;5.422;2023-10-19T07:46:42;2.83;;;0.95;;
71963;SDS011;59834;52.124;5.422;2023-10-19T07:49:10;5.15;;;0.93;;
71963;SDS011;59834;52.124;5.422;2023-10-19T07:51:44;5.47;;;1.17;;
71963;SDS011;59834;52.124;5.422;2023-10-19T07:54:12;2.60;;;0.47;;
71963;SDS011;59834;52.124;5.422;2023-10-19T07:56:40;2.80;;;0.80;;
71963;SDS011;59834;52.124;5.422;2023-10-19T07:59:06;3.92;;;0.50;;
71963;SDS011;59834;52.124;5.422;2023-10-19T08:01:33;3.53;;;0.40;;
71963;SDS011;59834;52.124;5.422;2023-10-19T08:04:00;3.40;;;0.93;;
71963;SDS011;59834;52.124;5.422;2023-10-19T08:06:27;10.40;;;1.20;;
71963;SDS011;59834;52.124;5.422;2023-10-19T08:08:53;3.03;;;1.15;;
71963;SDS011;59834;52.124;5.422;2023-10-19T08:11:21;1.63;;;0.30;;
71963;SDS011;59834;52.124;5.422;2023-10-19T08:13:48;8.77;;;0.50;;
71963;SDS011;59834;52.124;5.422;2023-10-19T08:16:15;5.97;;;0.53;;
71963;SDS011;59834;52.124;5.422;2023-10-19T08:18:43;3.22;;;0.50;;
71963;SDS011;59834;52.124;5.422;2023-10-19T08:21:09;4.32;;;0.40;;
71963;SDS011;59834;52.124;5.422;2023-10-19T08:23:36;4.22;;;0.65;;
71963;SDS011;59834;52.124;5.422;2023-10-19T08:26:03;4.95;;;0.70;;
71963;SDS011;59834;52.124;5.422;2023-10-19T08:28:32;8.20;;;0.50;;
71963;SDS011;59834;52.124;5.422;2023-10-19T08:30:58;4.35;;;0.47;;
71963;SDS011;59834;52.124;5.422;2023-10-19T08:33:28;6.25;;;0.70;;
71963;SDS011;59834;52.124;5.422;2023-10-19T08:35:56;6.68;;;0.75;;
71963;SDS011;59834;52.124;5.422;2023-10-19T08:38:25;4.45;;;0.47;;
71963;SDS011;59834;52.124;5.422;2023-10-19T08:40:52;4.40;;;0.43;;
71963;SDS011;59834;52.124;5.422;2023-10-19T08:43:20;6.07;;;0.50;;
71963;SDS011;59834;52.124;5.422;2023-10-19T08:45:48;6.15;;;0.80;;
71963;SDS011;59834;52.124;5.422;2023-10-19T08:48:15;9.40;;;1.02;;
71963;SDS011;59834;52.124;5.422;2023-10-19T08:50:42;4.30;;;0.80;;
71963;SDS011;59834;52.124;5.422;2023-10-19T08:53:09;3.33;;;0.50;;
71963;SDS011;59834;52.124;5.422;2023-10-19T08:55:37;4.80;;;0.65;;
71963;SDS011;59834;52.124;5.422;2023-10-19T08:58:15;3.38;;;0.80;;
71963;SDS011;59834;52.124;5.422;2023-10-19T09:00:45;4.35;;;0.80;;
71963;SDS011;59834;52.124;5.422;2023-10-19T09:03:14;4.32;;;0.70;;
71963;SDS011;59834;52.124;5.422;2023-10-19T09:05:43;7.90;;;0.70;;
71963;SDS011;59834;52.124;5.422;2023-10-19T09:08:16;6.82;;;0.77;;
71963;SDS011;59834;52.124;5.422;2023-10-19T09:10:45;7.90;;;0.75;;
71963;SDS011;59834;52.124;5.422;2023-10-19T09:13:13;6.70;;;0.50;;
71963;SDS011;59834;52.124;5.422;2023-10-19T09:15:42;6.53;;;0.75;;
71963;SDS011;59834;52.124;5.422;2023-10-19T09:20:44;5.18;;;0.82;;
71963;SDS011;59834;52.124;5.422;2023-10-19T09:23:28;5.63;;;0.85;;
71963;SDS011;59834;52.124;5.422;2023-10-19T09:25:57;7.70;;;0.85;;
71963;SDS011;59834;52.124;5.422;2023-10-19T09:28:28;2.95;;;0.60;;
71963;SDS011;59834;52.124;5.422;2023-10-19T09:30:55;3.87;;;0.70;;
71963;SDS011;59834;52.124;5.422;2023-10-19T09:33:22;5.60;;;0.63;;
71963;SDS011;59834;52.124;5.422;2023-10-19T09:35:50;5.28;;;1.00;;
71963;SDS011;59834;52.124;5.422;2023-10-19T09:38:22;3.63;;;0.55;;
71963;SDS011;59834;52.124;5.422;2023-10-19T09:40:50;4.47;;;0.75;;
71963;SDS011;59834;52.124;5.422;2023-10-19T09:43:38;3.53;;;0.63;;
71963;SDS011;59834;52.124;5.422;2023-10-19T09:46:10;5.97;;;0.90;;
71963;SDS011;59834;52.124;5.422;2023-10-19T09:48:39;8.55;;;0.90;;
71963;SDS011;59834;52.124;5.422;2023-10-19T09:51:09;5.65;;;0.65;;
71963;SDS011;59834;52.124;5.422;2023-10-19T09:53:42;7.50;;;0.68;;
71963;SDS011;59834;52.124;5.422;2023-10-19T09:56:17;3.47;;;0.67;;
71963;SDS011;59834;52.124;5.422;2023-10-19T09:58:48;3.97;;;0.60;;
71963;SDS011;59834;52.124;5.422;2023-10-19T10:01:17;4.85;;;0.90;;
71963;SDS011;59834;52.124;5.422;2023-10-19T10:03:51;6.43;;;0.70;;
71963;SDS011;59834;52.124;5.422;2023-10-19T10:06:27;6.00;;;1.17;;
71963;SDS011;59834;52.124;5.422;2023-10-19T10:09:20;7.43;;;1.00;;
71963;SDS011;59834;52.124;5.422;2023-10-19T10:11:50;6.78;;;1.02;;
71963;SDS011;59834;52.124;5.422;2023-10-19T10:14:22;8.07;;;1.00;;
71963;SDS011;59834;52.124;5.422;2023-10-19T10:17:00;5.63;;;0.80;;
71963;SDS011;59834;52.124;5.422;2023-10-19T10:19:28;5.35;;;1.00;;
71963;SDS011;59834;52.124;5.422;2023-10-19T10:22:03;10.80;;;1.50;;
71963;SDS011;59834;52.124;5.422;2023-10-19T10:24:41;5.43;;;1.48;;
71963;SDS011;59834;52.124;5.422;2023-10-19T10:27:08;3.80;;;0.65;;
71963;SDS011;59834;52.124;5.422;2023-10-19T10:29:36;5.07;;;0.75;;
71963;SDS011;59834;52.124;5.422;2023-10-19T10:32:04;5.07;;;1.52;;
71963;SDS011;59834;52.124;5.422;2023-10-19T10:37:08;9.55;;;1.40;;
71963;SDS011;59834;52.124;5.422;2023-10-19T10:39:38;8.95;;;1.63;;
71963;SDS011;59834;52.124;5.422;2023-10-19T10:42:09;5.18;;;1.33;;
71963;SDS011;59834;52.124;5.422;2023-10-19T10:44:44;3.25;;;0.82;;
71963;SDS011;59834;52.124;5.422;2023-10-19T10:47:15;6.30;;;0.73;;
71963;SDS011;59834;52.124;5.422;2023-10-19T10:49:52;5.90;;;0.73;;
71963;SDS011;59834;52.124;5.422;2023-10-19T10:52:26;3.30;;;1.10;;
71963;SDS011;59834;52.124;5.422;2023-10-19T10:55:10;7.15;;;0.70;;
71963;SDS011;59834;52.124;5.422;2023-10-19T10:57:39;10.30;;;0.75;;
71963;SDS011;59834;52.124;5.422;2023-10-19T11:00:08;7.67;;;1.23;;
71963;SDS011;59834;52.124;5.422;2023-10-19T11:02:42;6.57;;;0.93;;
71963;SDS011;59834;52.124;5.422;2023-10-19T11:05:13;10.02;;;1.60;;
71963;SDS011;59834;52.124;5.422;2023-10-19T11:07:46;6.10;;;0.93;;
71963;SDS011;59834;52.124;5.422;2023-10-19T11:10:34;8.05;;;1.65;;
71963;SDS011;59834;52.124;5.422;2023-10-19T11:13:04;7.97;;;2.07;;
71963;SDS011;59834;52.124;5.422;2023-10-19T11:15:32;5.50;;;1.92;;
71963;SDS011;59834;52.124;5.422;2023-10-19T11:18:01;8.68;;;1.23;;
71963;SDS011;59834;52.124;5.422;2023-10-19T11:20:28;4.20;;;0.63;;
71963;SDS011;59834;52.124;5.422;2023-10-19T11:22:56;5.43;;;0.82;;
71963;SDS011;59834;52.124;5.422;2023-10-19T11:25:24;5.63;;;0.60;;
71963;SDS011;59834;52.124;5.422;2023-10-19T11:27:58;5.88;;;0.75;;
71963;SDS011;59834;52.124;5.422;2023-10-19T11:30:27;10.00;;;1.23;;
71963;SDS011;59834;52.124;5.422;2023-10-19T11:32:55;7.22;;;0.75;;
71963;SDS011;59834;52.124;5.422;2023-10-19T11:35:35;6.13;;;1.38;;
71963;SDS011;59834;52.124;5.422;2023-10-19T11:38:03;4.23;;;0.57;;
71963;SDS011;59834;52.124;5.422;2023-10-19T11:40:30;11.07;;;3.25;;
71963;SDS011;59834;52.124;5.422;2023-10-19T11:42:57;4.40;;;1.13;;
71963;SDS011;59834;52.124;5.422;2023-10-19T11:45:24;3.03;;;0.63;;
71963;SDS011;59834;52.124;5.422;2023-10-19T11:47:52;6.30;;;0.57;;
71963;SDS011;59834;52.124;5.422;2023-10-19T11:50:19;5.70;;;1.03;;
71963;SDS011;59834;52.124;5.422;2023-10-19T11:52:46;6.57;;;0.80;;
71963;SDS011;59834;52.124;5.422;2023-10-19T11:55:13;9.23;;;0.60;;
71963;SDS011;59834;52.124;5.422;2023-10-19T11:57:43;8.55;;;1.17;;
71963;SDS011;59834;52.124;5.422;2023-10-19T12:00:10;7.20;;;0.80;;
71963;SDS011;59834;52.124;5.422;2023-10-19T12:02:48;6.07;;;0.57;;
71963;SDS011;59834;52.124;5.422;2023-10-19T12:05:14;6.72;;;0.60;;
71963;SDS011;59834;52.124;5.422;2023-10-19T12:07:41;5.20;;;0.73;;
71963;SDS011;59834;52.124;5.422;2023-10-19T12:10:11;5.90;;;0.57;;
71963;SDS011;59834;52.124;5.422;2023-10-19T12:12:38;6.13;;;0.65;;
71963;SDS011;59834;52.124;5.422;2023-10-19T12:15:23;5.00;;;0.63;;
71963;SDS011;59834;52.124;5.422;2023-10-19T12:17:52;5.38;;;0.90;;
71963;SDS011;59834;52.124;5.422;2023-10-19T12:20:19;6.47;;;0.50;;
71963;SDS011;59834;52.124;5.422;2023-10-19T12:22:48;4.35;;;0.75;;
71963;SDS011;59834;52.124;5.422;2023-10-19T12:25:18;5.47;;;0.93;;
71963;SDS011;59834;52.124;5.422;2023-10-19T12:27:45;4.13;;;0.90;;
71963;SDS011;59834;52.124;5.422;2023-10-19T12:30:12;6.70;;;1.63;;
71963;SDS011;59834;52.124;5.422;2023-10-19T12:33:02;4.13;;;0.60;;
71963;SDS011;59834;52.124;5.422;2023-10-19T12:35:34;5.85;;;0.80;;
71963;SDS011;59834;52.124;5.422;2023-10-19T12:38:20;6.35;;;0.77;;
71963;SDS011;59834;52.124;5.422;2023-10-19T12:43:33;4.43;;;0.63;;
71963;SDS011;59834;52.124;5.422;2023-10-19T12:46:01;12.02;;;1.13;;
71963;SDS011;59834;52.124;5.422;2023-10-19T12:48:28;5.32;;;0.55;;
71963;SDS011;59834;52.124;5.422;2023-10-19T12:51:00;6.18;;;1.15;;
71963;SDS011;59834;52.124;5.422;2023-10-19T12:53:28;10.20;;;1.47;;
71963;SDS011;59834;52.124;5.422;2023-10-19T12:55:54;7.50;;;1.42;;
71963;SDS011;59834;52.124;5.422;2023-10-19T12:58:21;9.68;;;0.70;;
71963;SDS011;59834;52.124;5.422;2023-10-19T13:00:48;6.35;;;0.60;;
71963;SDS011;59834;52.124;5.422;2023-10-19T13:03:18;4.65;;;0.60;;
71963;SDS011;59834;52.124;5.422;2023-10-19T13:05:45;8.37;;;1.30;;
71963;SDS011;59834;52.124;5.422;2023-10-19T13:08:12;7.88;;;0.93;;
71963;SDS011;59834;52.124;5.422;2023-10-19T13:10:42;7.43;;;0.90;;
71963;SDS011;59834;52.124;5.422;2023-10-19T13:13:10;10.38;;;0.80;;
71963;SDS011;59834;52.124;5.422;2023-10-19T13:15:44;9.23;;;1.20;;
71963;SDS011;59834;52.124;5.422;2023-10-19T13:18:12;8.63;;;0.80;;
71963;SDS011;59834;52.124;5.422;2023-10-19T13:20:46;9.15;;;1.30;;
71963;SDS011;59834;52.124;5.422;2023-10-19T13:23:14;8.45;;;0.80;;
71963;SDS011;59834;52.124;5.422;2023-10-19T13:25:48;7.15;;;0.85;;
71963;SDS011;59834;52.124;5.422;2023-10-19T13:28:19;3.67;;;0.60;;
71963;SDS011;59834;52.124;5.422;2023-10-19T13:30:51;13.17;;;1.20;;
71963;SDS011;59834;52.124;5.422;2023-10-19T13:33:22;5.05;;;0.90;;
71963;SDS011;59834;52.124;5.422;2023-10-19T13:35:50;6.28;;;0.80;;
71963;SDS011;59834;52.124;5.422;2023-10-19T13:38:17;5.13;;;0.82;;
71963;SDS011;59834;52.124;5.422;2023-10-19T13:40:47;5.35;;;0.75;;
71963;SDS011;59834;52.124;5.422;2023-10-19T13:43:16;11.50;;;0.90;;
71963;SDS011;59834;52.124;5.422;2023-10-19T13:45:44;6.57;;;1.17;;
71963;SDS011;59834;52.124;5.422;2023-10-19T13:48:13;8.20;;;1.25;;
71963;SDS011;59834;52.124;5.422;2023-10-19T13:50:41;7.63;;;1.10;;
71963;SDS011;59834;52.124;5.422;2023-10-19T13:53:15;8.95;;;1.38;;
71963;SDS011;59834;52.124;5.422;2023-10-19T13:55:43;8.30;;;0.83;;
71963;SDS011;59834;52.124;5.422;2023-10-19T13:58:10;5.05;;;0.95;;
71963;SDS011;59834;52.124;5.422;2023-10-19T14:00:37;8.13;;;0.80;;
71963;SDS011;59834;52.124;5.422;2023-10-19T14:03:03;10.27;;;1.08;;
71963;SDS011;59834;52.124;5.422;2023-10-19T14:05:38;7.07;;;0.80;;
71963;SDS011;59834;52.124;5.422;2023-10-19T14:08:06;5.77;;;0.63;;
71963;SDS011;59834;52.124;5.422;2023-10-19T14:10:34;9.57;;;1.02;;
71963;SDS011;59834;52.124;5.422;2023-10-19T14:13:01;9.13;;;1.15;;
71963;SDS011;59834;52.124;5.422;2023-10-19T14:15:28;4.70;;;0.82;;
71963;SDS011;59834;52.124;5.422;2023-10-19T14:17:55;9.05;;;0.80;;
71963;SDS011;59834;52.124;5.422;2023-10-19T14:20:28;6.73;;;1.10;;
71963;SDS011;59834;52.124;5.422;2023-10-19T14:22:56;6.53;;;0.73;;
71963;SDS011;59834;52.124;5.422;2023-10-19T14:25:23;7.03;;;0.90;;
71963;SDS011;59834;52.124;5.422;2023-10-19T14:27:51;14.07;;;1.17;;
71963;SDS011;59834;52.124;5.422;2023-10-19T14:30:22;7.57;;;1.15;;
71963;SDS011;59834;52.124;5.422;2023-10-19T14:32:50;5.63;;;1.37;;
71963;SDS011;59834;52.124;5.422;2023-10-19T14:35:18;9.63;;;0.95;;
71963;SDS011;59834;52.124;5.422;2023-10-19T14:37:49;6.18;;;0.90;;
71963;SDS011;59834;52.124;5.422;2023-10-19T14:40:18;9.77;;;1.13;;
71963;SDS011;59834;52.124;5.422;2023-10-19T14:42:47;9.50;;;1.13;;
71963;SDS011;59834;52.124;5.422;2023-10-19T14:45:16;6.27;;;0.70;;
71963;SDS011;59834;52.124;5.422;2023-10-19T14:47:47;7.50;;;1.45;;
71963;SDS011;59834;52.124;5.422;2023-10-19T14:50:14;15.75;;;1.73;;
71963;SDS011;59834;52.124;5.422;2023-10-19T14:52:44;7.82;;;1.17;;
71963;SDS011;59834;52.124;5.422;2023-10-19T14:55:13;5.43;;;1.20;;
71963;SDS011;59834;52.124;5.422;2023-10-19T14:57:42;8.47;;;1.37;;
71963;SDS011;59834;52.124;5.422;2023-10-19T15:00:20;7.55;;;1.25;;
71963;SDS011;59834;52.124;5.422;2023-10-19T15:02:48;9.27;;;1.55;;
71963;SDS011;59834;52.124;5.422;2023-10-19T15:09:22;12.90;;;0.77;;
71963;SDS011;59834;52.124;5.422;2023-10-19T15:11:51;6.70;;;1.00;;
71963;SDS011;59834;52.124;5.422;2023-10-19T15:14:20;12.02;;;1.67;;
71963;SDS011;59834;52.124;5.422;2023-10-19T15:16:46;8.23;;;1.15;;
71963;SDS011;59834;52.124;5.422;2023-10-19T15:19:13;5.10;;;1.55;;
71963;SDS011;59834;52.124;5.422;2023-10-19T15:21:44;9.60;;;1.50;;
71963;SDS011;59834;52.124;5.422;2023-10-19T15:24:11;5.77;;;0.97;;
71963;SDS011;59834;52.124;5.422;2023-10-19T15:26:42;10.70;;;1.38;;
71963;SDS011;59834;52.124;5.422;2023-10-19T15:29:09;6.65;;;1.05;;
71963;SDS011;59834;52.124;5.422;2023-10-19T15:31:36;7.93;;;1.63;;
71963;SDS011;59834;52.124;5.422;2023-10-19T15:34:02;6.78;;;1.33;;
71963;SDS011;59834;52.124;5.422;2023-10-19T15:36:29;5.53;;;1.07;;
71963;SDS011;59834;52.124;5.422;2023-10-19T15:38:55;7.03;;;1.20;;
71963;SDS011;59834;52.124;5.422;2023-10-19T15:41:22;7.55;;;0.90;;
71963;SDS011;59834;52.124;5.422;2023-10-19T15:43:49;6.82;;;0.90;;
71963;SDS011;59834;52.124;5.422;2023-10-19T15:46:15;7.85;;;1.23;;
71963;SDS011;59834;52.124;5.422;2023-10-19T15:52:40;7.43;;;1.15;;
71963;SDS011;59834;52.124;5.422;2023-10-19T15:55:14;11.35;;;0.93;;
71963;SDS011;59834;52.124;5.422;2023-10-19T16:00:58;6.80;;;1.80;;
71963;SDS011;59834;52.124;5.422;2023-10-19T16:03:24;10.30;;;1.70;;
71963;SDS011;59834;52.124;5.422;2023-10-19T16:05:51;11.18;;;3.25;;
71963;SDS011;59834;52.124;5.422;2023-10-19T16:08:18;11.70;;;3.22;;
71963;SDS011;59834;52.124;5.422;2023-10-19T16:10:44;5.60;;;1.40;;
71963;SDS011;59834;52.124;5.422;2023-10-19T16:13:11;8.30;;;1.58;;
71963;SDS011;59834;52.124;5.422;2023-10-19T16:15:39;8.97;;;1.40;;